createdAt,value
2022-09-23T00:01:15.266Z,100469.94
2022-09-23T00:03:45.512Z,100455.69
2022-09-23T00:06:15.576Z,100450.31
2022-09-23T00:08:43.811Z,100447.50
2022-09-23T00:11:22.523Z,100444.06
2022-09-23T00:13:51.738Z,100424.25
2022-09-23T00:16:36.655Z,100419.16
2022-09-23T00:19:04.778Z,100406.16
2022-09-23T00:21:31.434Z,100428.22
2022-09-23T00:23:58.004Z,100422.47
2022-09-23T00:26:25.503Z,100421.03
2022-09-23T00:28:52.633Z,100425.19
2022-09-23T00:31:26.081Z,100429.47
2022-09-23T00:33:54.871Z,100417.31
2022-09-23T00:36:21.492Z,100421.59
2022-09-23T00:38:48.071Z,100422.75
2022-09-23T00:41:17.818Z,100410.03
2022-09-23T00:43:53.595Z,100421.91
2022-09-23T00:46:29.855Z,100429.91
2022-09-23T00:49:02.162Z,100435.28
2022-09-23T00:51:35.797Z,100418.13
2022-09-23T00:54:03.383Z,100428.34
2022-09-23T00:56:32.254Z,100413.06
2022-09-23T00:59:00.563Z,100430.22
2022-09-23T01:01:27.226Z,100437.22
2022-09-23T01:03:55.327Z,100441.81
2022-09-23T01:06:22.782Z,100433.00
2022-09-23T01:08:49.771Z,100431.28
2022-09-23T01:11:16.267Z,100432.13
2022-09-23T01:14:20.844Z,100433.09
2022-09-23T01:16:51.223Z,100427.19
2022-09-23T01:19:27.809Z,100432.22
2022-09-23T01:22:04.990Z,100427.75
2022-09-23T01:25:05.716Z,100430.59
2022-09-23T01:27:52.281Z,100431.59
2022-09-23T01:30:47.919Z,100422.28
2022-09-23T01:33:23.104Z,100422.28
2022-09-23T01:36:12.101Z,100387.97
2022-09-23T01:38:44.814Z,100403.44
2022-09-23T01:41:24.239Z,100408.72
2022-09-23T01:43:56.426Z,100403.97
2022-09-23T01:46:42.914Z,100394.19
2022-09-23T01:49:15.042Z,100390.59
2022-09-23T01:51:51.117Z,100380.97
2022-09-23T01:54:32.784Z,100373.13
2022-09-23T01:57:16.958Z,100371.38
2022-09-23T01:59:50.114Z,100376.59
2022-09-23T02:02:33.411Z,100371.38
2022-09-23T02:05:11.550Z,100380.16
2022-09-23T02:07:47.099Z,100377.72
2022-09-23T02:10:20.572Z,100363.91
2022-09-23T02:12:50.711Z,100372.28
2022-09-23T02:15:21.201Z,100384.38
2022-09-23T02:17:54.818Z,100370.47
2022-09-23T02:20:42.120Z,100376.50
2022-09-23T02:23:15.472Z,100379.22
2022-09-23T02:26:03.201Z,100371.50
2022-09-23T02:28:38.944Z,100372.22
2022-09-23T02:31:12.166Z,100381.06
2022-09-23T02:33:47.029Z,100376.59
2022-09-23T02:36:26.108Z,100374.72
2022-09-23T02:38:58.227Z,100370.22
2022-09-23T02:41:36.828Z,100366.63
2022-09-23T02:44:11.742Z,100373.78
